Time;durP1;ratioP1;P1;durP2;ratioP2;P2;SDS_P1;SDS_P2;PMS_P1;PMS_P2;Temp;Humidity;BMP_temperature;BMP_pressure;BME280_temperature;BME280_humidity;BME280_pressure;Samples;Min_cycle;Max_cycle;Signal;HPM_P1;HPM_P2
2022/07/29 00:01:52;;;;;;;7.10;6.50;;;;;;;;;;5079408;28;20083;-68
2022/07/29 00:04:18;;;;;;;9.98;6.95;;;;;;;;;;5087014;28;20554;-68
2022/07/29 00:06:44;;;;;;;8.75;6.80;;;;;;;;;;5078342;28;20042;-67
2022/07/29 00:09:11;;;;;;;10.30;6.70;;;;;;;;;;5085756;28;20027;-67
2022/07/29 00:11:37;;;;;;;7.95;5.78;;;;;;;;;;5081242;28;20129;-68
2022/07/29 00:14:03;;;;;;;7.40;6.20;;;;;;;;;;5080966;28;20103;-69
2022/07/29 00:16:30;;;;;;;6.68;6.07;;;;;;;;;;5078219;28;20748;-68
2022/07/29 00:18:56;;;;;;;7.18;6.47;;;;;;;;;;5080142;28;20111;-70
2022/07/29 00:21:22;;;;;;;7.13;6.13;;;;;;;;;;5073406;28;20056;-75
2022/07/29 00:23:48;;;;;;;7.10;6.03;;;;;;;;;;5079583;28;20666;-74
2022/07/29 00:26:14;;;;;;;6.80;6.10;;;;;;;;;;5076702;28;20429;-73
2022/07/29 00:28:40;;;;;;;7.13;6.30;;;;;;;;;;5074626;28;20031;-75
2022/07/29 00:31:07;;;;;;;8.68;6.25;;;;;;;;;;5076670;28;20563;-74
2022/07/29 00:33:33;;;;;;;7.80;6.63;;;;;;;;;;5078553;28;20023;-70
2022/07/29 00:35:59;;;;;;;8.27;6.70;;;;;;;;;;5063799;28;20017;-68
2022/07/29 00:38:26;;;;;;;9.60;6.43;;;;;;;;;;5082495;28;20028;-74
2022/07/29 00:40:52;;;;;;;8.68;6.45;;;;;;;;;;5081188;28;20027;-74
2022/07/29 00:43:18;;;;;;;7.05;6.35;;;;;;;;;;5079726;28;20031;-75
2022/07/29 00:45:44;;;;;;;6.60;6.00;;;;;;;;;;5077022;28;20049;-75
2022/07/29 00:48:10;;;;;;;10.45;6.50;;;;;;;;;;5079805;28;20070;-73
2022/07/29 00:50:37;;;;;;;7.07;6.47;;;;;;;;;;5075037;28;20024;-74
2022/07/29 00:53:04;;;;;;;7.00;6.30;;;;;;;;;;5073517;28;20036;-74
2022/07/29 00:55:30;;;;;;;7.13;6.43;;;;;;;;;;5068727;28;20028;-74
2022/07/29 00:57:57;;;;;;;7.00;6.38;;;;;;;;;;5073509;28;20028;-72
2022/07/29 01:00:24;;;;;;;7.20;6.50;;;;;;;;;;5071576;28;20366;-73
2022/07/29 01:02:51;;;;;;;7.18;5.97;;;;;;;;;;5080494;28;20471;-70
2022/07/29 01:05:18;;;;;;;7.00;6.28;;;;;;;;;;5075917;28;20013;-68
2022/07/29 01:07:45;;;;;;;7.22;5.88;;;;;;;;;;5076051;28;20028;-70
2022/07/29 01:10:13;;;;;;;7.28;6.60;;;;;;;;;;5075328;28;20019;-70
2022/07/29 01:12:39;;;;;;;7.35;6.60;;;;;;;;;;5073219;28;20144;-73
2022/07/29 01:15:06;;;;;;;9.45;6.72;;;;;;;;;;5082137;28;20048;-73
2022/07/29 01:17:34;;;;;;;6.90;6.22;;;;;;;;;;5076245;28;20288;-73
2022/07/29 01:20:06;;;;;;;6.60;5.93;;;;;;;;;;5080354;28;20020;-74
2022/07/29 01:22:36;;;;;;;7.25;6.10;;;;;;;;;;5078532;28;20040;-73
2022/07/29 01:25:30;;;;;;;7.47;6.70;;;;;;;;;;5078611;28;20020;-73
2022/07/29 01:28:09;;;;;;;6.65;5.80;;;;;;;;;;5072290;28;20535;-73
2022/07/29 01:30:36;;;;;;;7.32;6.13;;;;;;;;;;5076981;28;20111;-73
2022/07/29 01:33:03;;;;;;;8.93;6.25;;;;;;;;;;5078857;28;20035;-72
2022/07/29 01:35:34;;;;;;;7.07;6.38;;;;;;;;;;5078783;28;20054;-74
2022/07/29 01:38:05;;;;;;;7.65;6.32;;;;;;;;;;5078414;28;20102;-74
2022/07/29 01:40:35;;;;;;;6.85;6.15;;;;;;;;;;5076300;28;20032;-70
2022/07/29 01:43:05;;;;;;;7.38;6.68;;;;;;;;;;5075549;28;20032;-68
2022/07/29 01:45:39;;;;;;;7.15;6.45;;;;;;;;;;5078139;28;20024;-68
2022/07/29 01:48:23;;;;;;;6.53;5.93;;;;;;;;;;5076576;28;20021;-68
2022/07/29 01:51:09;;;;;;;8.98;6.60;;;;;;;;;;5077076;28;20182;-68
2022/07/29 01:53:56;;;;;;;7.80;6.78;;;;;;;;;;5059367;28;20036;-68
2022/07/29 01:56:23;;;;;;;8.55;6.15;;;;;;;;;;5076751;28;20074;-69
2022/07/29 01:58:49;;;;;;;9.23;6.55;;;;;;;;;;5076721;28;20395;-69
2022/07/29 02:01:16;;;;;;;11.85;6.82;;;;;;;;;;5078219;28;20026;-68
2022/07/29 02:03:44;;;;;;;6.93;5.80;;;;;;;;;;5080284;28;20028;-68
2022/07/29 02:06:11;;;;;;;6.68;6.07;;;;;;;;;;5080549;28;20027;-70
2022/07/29 02:08:39;;;;;;;7.55;6.32;;;;;;;;;;5082747;28;20477;-67
2022/07/29 02:11:06;;;;;;;8.57;6.40;;;;;;;;;;5074466;28;20077;-71
2022/07/29 02:13:34;;;;;;;7.25;6.65;;;;;;;;;;5073535;28;20031;-68
2022/07/29 02:16:01;;;;;;;8.55;6.28;;;;;;;;;;5074205;28;20020;-68
2022/07/29 02:18:28;;;;;;;9.57;6.57;;;;;;;;;;5076125;28;20031;-69
2022/07/29 02:20:57;;;;;;;6.88;6.05;;;;;;;;;;5077174;28;20040;-69
2022/07/29 02:23:23;;;;;;;7.00;6.20;;;;;;;;;;5078288;28;20207;-70
2022/07/29 02:25:50;;;;;;;7.90;7.13;;;;;;;;;;5070298;28;20467;-70
2022/07/29 02:28:17;;;;;;;7.82;6.03;;;;;;;;;;5072992;28;20024;-68
2022/07/29 02:30:44;;;;;;;6.80;6.20;;;;;;;;;;5081454;28;20380;-68
2022/07/29 02:33:11;;;;;;;10.00;6.20;;;;;;;;;;5079223;28;20027;-67
2022/07/29 02:35:37;;;;;;;6.82;6.22;;;;;;;;;;5080734;28;20017;-69
2022/07/29 02:40:49;;;;;;;8.35;6.75;;;;;;;;;;5081289;28;20039;-69
2022/07/29 02:43:15;;;;;;;7.32;6.47;;;;;;;;;;5082186;28;20028;-68
2022/07/29 02:45:42;;;;;;;7.68;6.07;;;;;;;;;;5078417;28;20384;-68
2022/07/29 02:48:12;;;;;;;8.43;6.03;;;;;;;;;;5080748;28;20274;-69
2022/07/29 02:50:41;;;;;;;7.03;5.93;;;;;;;;;;5081433;28;20391;-69
2022/07/29 02:53:18;;;;;;;8.30;6.10;;;;;;;;;;5079421;28;20081;-69
2022/07/29 02:55:46;;;;;;;9.80;5.95;;;;;;;;;;5082436;28;20012;-68
2022/07/29 02:58:19;;;;;;;9.45;6.40;;;;;;;;;;5080197;28;20024;-70
2022/07/29 03:00:47;;;;;;;11.48;6.63;;;;;;;;;;5080614;28;20063;-67
2022/07/29 03:03:15;;;;;;;7.60;6.18;;;;;;;;;;5077368;28;20020;-68
2022/07/29 03:05:41;;;;;;;8.73;6.30;;;;;;;;;;5086509;28;20024;-69
2022/07/29 03:08:09;;;;;;;10.02;6.45;;;;;;;;;;5076212;28;20013;-69
2022/07/29 03:10:37;;;;;;;10.40;5.97;;;;;;;;;;5086103;28;20388;-69
2022/07/29 03:13:04;;;;;;;11.23;6.13;;;;;;;;;;5079376;28;20036;-68
2022/07/29 03:15:31;;;;;;;7.82;6.20;;;;;;;;;;5085166;28;20085;-68
2022/07/29 03:17:57;;;;;;;9.50;6.40;;;;;;;;;;5068257;28;20034;-68
2022/07/29 03:20:24;;;;;;;11.38;6.10;;;;;;;;;;5064548;28;20475;-68
2022/07/29 03:22:50;;;;;;;9.50;6.03;;;;;;;;;;5070680;28;20017;-69
2022/07/29 03:25:17;;;;;;;9.30;6.78;;;;;;;;;;5068643;28;20027;-68
2022/07/29 03:27:44;;;;;;;10.18;6.97;;;;;;;;;;5068579;28;20028;-68
2022/07/29 03:30:11;;;;;;;7.25;6.47;;;;;;;;;;5069749;28;20481;-67
2022/07/29 03:32:37;;;;;;;9.50;6.22;;;;;;;;;;5072062;28;20055;-68
2022/07/29 03:35:03;;;;;;;8.32;5.97;;;;;;;;;;5070726;28;20091;-68
2022/07/29 03:37:30;;;;;;;10.60;6.25;;;;;;;;;;5072213;28;20032;-68
2022/07/29 03:39:57;;;;;;;8.45;6.88;;;;;;;;;;5063585;28;20040;-68
2022/07/29 03:42:28;;;;;;;8.77;6.32;;;;;;;;;;5073615;28;20035;-68
2022/07/29 03:44:56;;;;;;;8.57;6.20;;;;;;;;;;5070858;28;20039;-70
2022/07/29 03:47:25;;;;;;;7.47;6.47;;;;;;;;;;5073078;28;20051;-68
2022/07/29 03:49:53;;;;;;;8.45;6.57;;;;;;;;;;5074122;28;20028;-68
2022/07/29 03:52:19;;;;;;;7.40;6.68;;;;;;;;;;5071261;28;20037;-69
2022/07/29 03:54:45;;;;;;;9.23;6.00;;;;;;;;;;5071451;28;20013;-68
2022/07/29 03:57:12;;;;;;;10.43;6.68;;;;;;;;;;5067398;28;20020;-68
2022/07/29 03:59:39;;;;;;;6.85;6.15;;;;;;;;;;5070499;28;20039;-68
2022/07/29 04:02:06;;;;;;;9.63;6.00;;;;;;;;;;5069671;28;20062;-69
2022/07/29 04:04:35;;;;;;;7.50;6.53;;;;;;;;;;5068667;28;20526;-74
2022/07/29 04:07:02;;;;;;;8.32;6.15;;;;;;;;;;5071034;28;20027;-67
2022/07/29 04:09:28;;;;;;;12.70;6.85;;;;;;;;;;5067645;28;20112;-69
2022/07/29 04:11:54;;;;;;;10.80;6.55;;;;;;;;;;5071986;28;20059;-68
2022/07/29 04:14:20;;;;;;;6.50;5.78;;;;;;;;;;5070535;28;20017;-70
2022/07/29 04:16:46;;;;;;;7.90;6.35;;;;;;;;;;5070400;28;20387;-67
2022/07/29 04:19:12;;;;;;;11.00;6.43;;;;;;;;;;5065432;28;20270;-67
2022/07/29 04:21:39;;;;;;;8.32;6.30;;;;;;;;;;5067563;28;20106;-67
2022/07/29 04:24:06;;;;;;;7.97;6.00;;;;;;;;;;5070316;28;20065;-69
2022/07/29 04:26:32;;;;;;;10.32;6.43;;;;;;;;;;5053534;28;20031;-68
2022/07/29 04:28:58;;;;;;;8.32;6.03;;;;;;;;;;5065088;28;20096;-70
2022/07/29 04:31:25;;;;;;;10.13;6.22;;;;;;;;;;5065538;28;20047;-72
2022/07/29 04:33:51;;;;;;;8.18;5.80;;;;;;;;;;5060842;28;20036;-68
2022/07/29 04:36:17;;;;;;;8.57;5.63;;;;;;;;;;5069285;28;20471;-74
2022/07/29 04:38:43;;;;;;;7.13;6.13;;;;;;;;;;5070778;28;20211;-73
2022/07/29 04:41:09;;;;;;;7.95;5.93;;;;;;;;;;5070610;28;20434;-70
2022/07/29 04:43:36;;;;;;;7.20;5.82;;;;;;;;;;5071064;28;20498;-73
2022/07/29 04:46:04;;;;;;;10.30;6.38;;;;;;;;;;5069754;28;20024;-71
2022/07/29 04:48:30;;;;;;;7.40;5.78;;;;;;;;;;5071415;28;20027;-72
2022/07/29 04:50:56;;;;;;;7.85;5.75;;;;;;;;;;5073185;28;20255;-69
2022/07/29 04:53:22;;;;;;;6.82;5.47;;;;;;;;;;5068608;28;20066;-74
2022/07/29 04:55:49;;;;;;;9.73;6.45;;;;;;;;;;5065388;28;20375;-68
2022/07/29 04:58:15;;;;;;;8.88;5.50;;;;;;;;;;5073547;28;20020;-69
2022/07/29 05:00:41;;;;;;;8.35;5.28;;;;;;;;;;5067560;28;20054;-68
2022/07/29 05:03:07;;;;;;;9.10;6.10;;;;;;;;;;5067255;28;20016;-69
2022/07/29 05:05:34;;;;;;;7.68;6.18;;;;;;;;;;5068331;28;20024;-68
2022/07/29 05:08:00;;;;;;;7.70;5.65;;;;;;;;;;5071401;28;20484;-68
2022/07/29 05:10:26;;;;;;;7.85;6.18;;;;;;;;;;5070925;28;20039;-69
2022/07/29 05:12:52;;;;;;;9.27;5.57;;;;;;;;;;5069259;28;20058;-69
2022/07/29 05:15:18;;;;;;;9.73;6.43;;;;;;;;;;5070861;28;20020;-69
2022/07/29 05:17:45;;;;;;;10.68;6.22;;;;;;;;;;5074467;28;20403;-68
2022/07/29 05:20:11;;;;;;;11.13;6.10;;;;;;;;;;5075171;28;20028;-69
2022/07/29 05:22:37;;;;;;;6.97;5.80;;;;;;;;;;5072414;28;20043;-68
2022/07/29 05:25:04;;;;;;;7.28;5.50;;;;;;;;;;5071677;28;20465;-69
2022/07/29 05:27:30;;;;;;;9.25;5.97;;;;;;;;;;5068968;28;20025;-68
2022/07/29 05:29:56;;;;;;;7.50;5.65;;;;;;;;;;5073891;28;20021;-72
2022/07/29 05:32:22;;;;;;;9.48;5.93;;;;;;;;;;5075525;28;20542;-70
2022/07/29 05:34:48;;;;;;;8.18;5.75;;;;;;;;;;5077863;28;20152;-72
2022/07/29 05:37:15;;;;;;;10.23;6.43;;;;;;;;;;5078468;28;20846;-73
2022/07/29 05:39:41;;;;;;;10.57;5.72;;;;;;;;;;5072701;28;20020;-73
2022/07/29 05:42:10;;;;;;;8.20;5.93;;;;;;;;;;5076035;28;20055;-70
2022/07/29 05:44:37;;;;;;;6.22;5.20;;;;;;;;;;5073847;28;20093;-71
2022/07/29 05:47:03;;;;;;;7.55;5.72;;;;;;;;;;5071510;28;20028;-71
2022/07/29 05:49:29;;;;;;;6.82;5.93;;;;;;;;;;5067725;28;20486;-72
2022/07/29 05:51:56;;;;;;;8.48;5.50;;;;;;;;;;5071227;28;20045;-73
2022/07/29 05:54:22;;;;;;;8.32;5.50;;;;;;;;;;5076046;28;20027;-72
2022/07/29 05:56:48;;;;;;;8.70;5.82;;;;;;;;;;5058385;28;20028;-73
2022/07/29 05:59:14;;;;;;;9.90;5.97;;;;;;;;;;5077636;28;20380;-74
2022/07/29 06:01:41;;;;;;;6.15;5.55;;;;;;;;;;5054744;28;20491;-72
2022/07/29 06:04:07;;;;;;;8.05;5.72;;;;;;;;;;5075569;28;20146;-72
2022/07/29 06:06:34;;;;;;;11.95;5.68;;;;;;;;;;5079605;28;20094;-71
2022/07/29 06:09:00;;;;;;;10.95;5.72;;;;;;;;;;5073649;28;20020;-72
2022/07/29 06:11:26;;;;;;;9.63;5.75;;;;;;;;;;5074892;28;20438;-72
2022/07/29 06:13:53;;;;;;;8.05;6.03;;;;;;;;;;5074982;28;20028;-73
2022/07/29 06:16:19;;;;;;;12.63;5.88;;;;;;;;;;5080029;28;20681;-72
2022/07/29 06:18:45;;;;;;;7.20;5.55;;;;;;;;;;5069858;28;20531;-73
2022/07/29 06:21:11;;;;;;;7.35;5.65;;;;;;;;;;5075979;28;20110;-73
2022/07/29 06:23:38;;;;;;;7.90;5.32;;;;;;;;;;5083033;28;20491;-72
2022/07/29 06:26:04;;;;;;;11.68;6.63;;;;;;;;;;5083061;28;20031;-73
2022/07/29 06:28:31;;;;;;;15.57;5.93;;;;;;;;;;5076851;28;20039;-76
2022/07/29 06:30:57;;;;;;;10.20;5.55;;;;;;;;;;5080444;28;20080;-72
2022/07/29 06:33:23;;;;;;;7.78;5.70;;;;;;;;;;5079630;28;20336;-74
2022/07/29 06:35:49;;;;;;;9.30;5.03;;;;;;;;;;5081973;28;20050;-74
2022/07/29 06:38:16;;;;;;;10.70;5.65;;;;;;;;;;5077446;28;20376;-72
2022/07/29 06:41:05;;;;;;;6.57;5.40;;;;;;;;;;5080648;28;20023;-71
2022/07/29 06:43:33;;;;;;;7.30;5.28;;;;;;;;;;5075745;28;20055;-73
2022/07/29 06:46:03;;;;;;;7.82;5.70;;;;;;;;;;5081986;28;20023;-73
2022/07/29 06:48:30;;;;;;;5.77;5.10;;;;;;;;;;5076273;28;20036;-74
2022/07/29 06:50:56;;;;;;;7.10;5.38;;;;;;;;;;5077780;28;20448;-72
2022/07/29 06:53:22;;;;;;;8.50;5.95;;;;;;;;;;5076812;28;20471;-70
2022/07/29 06:55:48;;;;;;;7.25;5.40;;;;;;;;;;5079205;28;20013;-69
2022/07/29 06:58:17;;;;;;;6.60;5.65;;;;;;;;;;5079494;28;20016;-70
2022/07/29 07:00:44;;;;;;;6.05;5.45;;;;;;;;;;5060513;28;20059;-69
2022/07/29 07:03:10;;;;;;;7.20;5.70;;;;;;;;;;5081460;28;20024;-68
2022/07/29 07:05:36;;;;;;;10.50;6.50;;;;;;;;;;5076338;28;20028;-72
2022/07/29 07:08:02;;;;;;;10.43;6.18;;;;;;;;;;5077075;28;20368;-75
2022/07/29 07:10:29;;;;;;;8.98;5.82;;;;;;;;;;5069921;28;20042;-74
2022/07/29 07:12:55;;;;;;;8.85;5.78;;;;;;;;;;5074580;28;20116;-76
2022/07/29 07:15:21;;;;;;;6.70;5.40;;;;;;;;;;5074987;28;20141;-70
2022/07/29 07:17:51;;;;;;;7.78;5.88;;;;;;;;;;5073544;28;20082;-73
2022/07/29 07:20:17;;;;;;;8.40;5.60;;;;;;;;;;5076465;28;20032;-74
2022/07/29 07:22:44;;;;;;;5.57;5.07;;;;;;;;;;5068893;28;20047;-73
2022/07/29 07:25:10;;;;;;;6.72;5.70;;;;;;;;;;5077132;28;20049;-74
2022/07/29 07:27:37;;;;;;;6.07;5.13;;;;;;;;;;5063245;28;20383;-74
2022/07/29 07:30:05;;;;;;;6.97;5.20;;;;;;;;;;5082713;28;20543;-74
2022/07/29 07:32:32;;;;;;;7.68;5.78;;;;;;;;;;5071825;28;20056;-72
2022/07/29 07:34:58;;;;;;;6.28;5.28;;;;;;;;;;5070046;28;20027;-73
2022/07/29 07:37:25;;;;;;;8.45;5.22;;;;;;;;;;5075930;28;20024;-74
2022/07/29 07:39:51;;;;;;;6.07;5.05;;;;;;;;;;5075516;28;20055;-69
2022/07/29 07:42:17;;;;;;;5.85;4.78;;;;;;;;;;5078919;28;20016;-70
2022/07/29 07:44:45;;;;;;;9.88;4.90;;;;;;;;;;5071776;28;20036;-73
2022/07/29 07:47:11;;;;;;;9.65;5.00;;;;;;;;;;5060632;28;20017;-73
2022/07/29 07:49:37;;;;;;;7.45;4.82;;;;;;;;;;5059310;28;20526;-71
2022/07/29 07:52:04;;;;;;;7.22;5.00;;;;;;;;;;5073823;28;20039;-69
2022/07/29 07:54:30;;;;;;;5.65;4.68;;;;;;;;;;5078460;28;20020;-69
2022/07/29 07:56:56;;;;;;;8.20;4.68;;;;;;;;;;5072538;28;20035;-71
2022/07/29 07:59:23;;;;;;;7.78;4.40;;;;;;;;;;5078317;28;20033;-70
2022/07/29 08:01:49;;;;;;;8.27;4.65;;;;;;;;;;5072883;28;20104;-70
2022/07/29 08:04:16;;;;;;;6.07;4.72;;;;;;;;;;5076653;28;20045;-69
2022/07/29 08:06:42;;;;;;;8.32;5.22;;;;;;;;;;5079023;28;20055;-69
2022/07/29 08:09:08;;;;;;;5.18;4.68;;;;;;;;;;5077875;28;20028;-69
2022/07/29 08:11:34;;;;;;;7.70;4.60;;;;;;;;;;5070249;28;20040;-68
2022/07/29 08:14:01;;;;;;;4.85;4.20;;;;;;;;;;5071898;28;20017;-69
2022/07/29 08:16:28;;;;;;;5.88;4.15;;;;;;;;;;5077947;28;20058;-68
2022/07/29 08:18:56;;;;;;;8.13;4.63;;;;;;;;;;5075320;28;20078;-70
2022/07/29 08:21:24;;;;;;;7.32;4.75;;;;;;;;;;5077079;28;20076;-69
2022/07/29 08:23:52;;;;;;;6.93;5.38;;;;;;;;;;5072548;28;20028;-71
2022/07/29 08:26:22;;;;;;;7.65;4.65;;;;;;;;;;5071325;28;20028;-71
2022/07/29 08:28:50;;;;;;;7.00;4.97;;;;;;;;;;5076119;28;20032;-69
2022/07/29 08:31:16;;;;;;;5.85;4.70;;;;;;;;;;5073509;28;20028;-72
2022/07/29 08:33:43;;;;;;;6.10;4.55;;;;;;;;;;5054093;28;20032;-71
2022/07/29 08:36:09;;;;;;;6.43;4.75;;;;;;;;;;5075550;28;20475;-70
2022/07/29 08:38:35;;;;;;;7.10;4.60;;;;;;;;;;5072076;28;20579;-69
2022/07/29 08:41:01;;;;;;;7.72;4.70;;;;;;;;;;5074946;28;20358;-73
2022/07/29 08:43:31;;;;;;;5.88;4.93;;;;;;;;;;5073045;28;20539;-74
2022/07/29 08:45:58;;;;;;;6.55;4.75;;;;;;;;;;5074359;28;20039;-71
2022/07/29 08:48:24;;;;;;;5.53;4.50;;;;;;;;;;5073510;28;20028;-74
2022/07/29 08:50:55;;;;;;;7.20;4.63;;;;;;;;;;5071167;28;20032;-70
2022/07/29 08:53:21;;;;;;;8.48;4.82;;;;;;;;;;5067106;28;20070;-70
2022/07/29 08:55:49;;;;;;;8.23;5.47;;;;;;;;;;5072539;28;20185;-72
2022/07/29 08:58:15;;;;;;;8.18;5.00;;;;;;;;;;5068103;28;20069;-70
2022/07/29 09:00:43;;;;;;;7.72;5.10;;;;;;;;;;5073528;28;20483;-72
2022/07/29 09:03:09;;;;;;;7.32;4.88;;;;;;;;;;5071151;28;20020;-68
2022/07/29 09:05:36;;;;;;;5.50;4.75;;;;;;;;;;5060193;28;20039;-69
2022/07/29 09:08:02;;;;;;;5.57;4.43;;;;;;;;;;5071841;28;20020;-75
2022/07/29 09:10:29;;;;;;;5.82;5.18;;;;;;;;;;5066283;28;20048;-73
2022/07/29 09:12:55;;;;;;;9.05;5.05;;;;;;;;;;5070300;28;20032;-71
2022/07/29 09:15:22;;;;;;;5.43;4.90;;;;;;;;;;5073237;28;20020;-73
2022/07/29 09:17:49;;;;;;;7.40;4.53;;;;;;;;;;5059996;28;20020;-76
2022/07/29 09:20:16;;;;;;;5.30;4.50;;;;;;;;;;5078317;28;20028;-75
2022/07/29 09:25:34;;;;;;;6.95;5.05;;;;;;;;;;4931554;22;20137;-81
2022/07/29 09:28:11;;;;;;;5.97;4.40;;;;;;;;;;5052567;28;20094;-82
2022/07/29 09:30:52;;;;;;;6.30;4.55;;;;;;;;;;5067104;28;20088;-81
2022/07/29 09:33:18;;;;;;;7.68;4.88;;;;;;;;;;5041608;28;20032;-82
2022/07/29 09:35:45;;;;;;;9.00;5.00;;;;;;;;;;5034499;28;20029;-81
2022/07/29 09:38:14;;;;;;;9.85;5.38;;;;;;;;;;5035587;28;20024;-82
2022/07/29 09:40:40;;;;;;;10.05;4.93;;;;;;;;;;5037503;28;20382;-82
2022/07/29 09:43:13;;;;;;;7.90;5.13;;;;;;;;;;5037716;28;20082;-80
2022/07/29 09:45:40;;;;;;;6.13;4.68;;;;;;;;;;5034889;28;20029;-82
2022/07/29 09:48:17;;;;;;;12.77;5.85;;;;;;;;;;5037166;28;20478;-82
2022/07/29 09:50:49;;;;;;;8.50;5.20;;;;;;;;;;5038076;28;20025;-83
2022/07/29 09:53:31;;;;;;;10.05;5.40;;;;;;;;;;5033256;28;20025;-82
2022/07/29 09:55:57;;;;;;;8.02;4.80;;;;;;;;;;5036111;28;20401;-82
2022/07/29 09:58:23;;;;;;;7.95;4.85;;;;;;;;;;5035101;28;20040;-82
2022/07/29 10:00:51;;;;;;;5.95;5.15;;;;;;;;;;5035713;28;20032;-84
2022/07/29 10:03:18;;;;;;;6.07;5.28;;;;;;;;;;5035861;28;20096;-82
2022/07/29 10:05:45;;;;;;;7.03;5.30;;;;;;;;;;5035458;28;20020;-82
2022/07/29 10:08:12;;;;;;;7.72;5.72;;;;;;;;;;5035133;28;20017;-82
2022/07/29 10:10:42;;;;;;;10.15;5.20;;;;;;;;;;5034552;28;20025;-83
2022/07/29 10:13:13;;;;;;;7.82;5.57;;;;;;;;;;5033850;28;20030;-82
2022/07/29 10:15:46;;;;;;;7.80;4.88;;;;;;;;;;5037547;28;20049;-84
2022/07/29 10:18:13;;;;;;;8.50;4.97;;;;;;;;;;5039122;28;20024;-83
2022/07/29 10:20:40;;;;;;;7.70;5.30;;;;;;;;;;5035613;28;20013;-82
2022/07/29 10:23:06;;;;;;;8.02;5.00;;;;;;;;;;5035348;28;20045;-83
2022/07/29 10:25:32;;;;;;;6.25;5.28;;;;;;;;;;5040586;22;20033;-75
2022/07/29 10:27:59;;;;;;;5.80;4.80;;;;;;;;;;5016902;28;20216;-75
2022/07/29 10:30:26;;;;;;;6.68;5.18;;;;;;;;;;5020672;28;20021;-72
2022/07/29 10:32:55;;;;;;;7.82;5.30;;;;;;;;;;5016293;28;20026;-74
2022/07/29 10:35:21;;;;;;;6.82;4.88;;;;;;;;;;5021624;28;20200;-75
2022/07/29 10:37:56;;;;;;;8.30;5.30;;;;;;;;;;5018009;28;20040;-70
2022/07/29 10:43:22;;;;;;;6.03;5.15;;;;;;;;;;5004504;28;20040;-72
2022/07/29 10:45:49;;;;;;;6.85;5.22;;;;;;;;;;5003282;28;20018;-73
2022/07/29 10:48:15;;;;;;;9.80;5.88;;;;;;;;;;4990769;28;20026;-74
2022/07/29 10:51:02;;;;;;;6.22;5.18;;;;;;;;;;4990118;28;20030;-73
2022/07/29 10:53:47;;;;;;;6.55;5.07;;;;;;;;;;5005734;28;20375;-74
2022/07/29 10:56:25;;;;;;;8.82;5.30;;;;;;;;;;5001415;28;20490;-75
2022/07/29 10:59:14;;;;;;;5.80;4.95;;;;;;;;;;5006457;28;20036;-75
2022/07/29 11:01:41;;;;;;;8.27;4.97;;;;;;;;;;4996575;28;20555;-75
2022/07/29 11:04:07;;;;;;;7.88;5.57;;;;;;;;;;5002277;28;20026;-72
2022/07/29 11:06:51;;;;;;;10.15;5.15;;;;;;;;;;5003443;28;20037;-76
2022/07/29 11:09:19;;;;;;;7.63;5.00;;;;;;;;;;4997657;28;20722;-75
2022/07/29 11:11:45;;;;;;;5.53;5.00;;;;;;;;;;5001350;28;20077;-75
2022/07/29 11:14:11;;;;;;;7.80;5.43;;;;;;;;;;4989373;28;20431;-71
2022/07/29 11:16:56;;;;;;;9.10;5.05;;;;;;;;;;4995862;28;20137;-74
2022/07/29 11:19:23;;;;;;;7.88;5.53;;;;;;;;;;5003847;28;20408;-73
2022/07/29 11:21:49;;;;;;;5.80;5.00;;;;;;;;;;5003451;28;20224;-72
2022/07/29 11:24:17;;;;;;;7.60;5.60;;;;;;;;;;5011729;28;20128;-72
2022/07/29 11:26:44;;;;;;;8.25;5.20;;;;;;;;;;5002888;28;20037;-74
2022/07/29 11:29:21;;;;;;;5.53;5.00;;;;;;;;;;5003784;28;20029;-71
2022/07/29 11:31:53;;;;;;;7.85;5.72;;;;;;;;;;5004028;28;20034;-71
2022/07/29 11:34:28;;;;;;;6.18;5.07;;;;;;;;;;5004656;28;20030;-71
2022/07/29 11:39:38;;;;;;;6.72;5.40;;;;;;;;;;5005250;28;20033;-73
2022/07/29 11:42:23;;;;;;;8.82;5.20;;;;;;;;;;5011525;28;20021;-68
2022/07/29 11:45:01;;;;;;;6.70;4.95;;;;;;;;;;5009264;28;20033;-74
2022/07/29 11:47:28;;;;;;;6.00;5.13;;;;;;;;;;4998970;28;20030;-70
2022/07/29 11:49:56;;;;;;;7.40;5.30;;;;;;;;;;4999838;28;20026;-70
2022/07/29 11:52:23;;;;;;;7.82;4.88;;;;;;;;;;5004458;28;20204;-71
2022/07/29 11:54:50;;;;;;;8.18;5.30;;;;;;;;;;5006069;28;20466;-75
2022/07/29 11:57:20;;;;;;;8.38;4.85;;;;;;;;;;4999042;28;20026;-74
2022/07/29 11:59:47;;;;;;;7.70;5.00;;;;;;;;;;5004630;28;20033;-74
2022/07/29 12:02:13;;;;;;;5.88;5.15;;;;;;;;;;5001485;28;20022;-74
2022/07/29 12:04:51;;;;;;;6.28;4.60;;;;;;;;;;4998151;28;20037;-69
2022/07/29 12:07:18;;;;;;;7.07;5.30;;;;;;;;;;4997694;28;20109;-73
2022/07/29 12:09:51;;;;;;;9.65;5.47;;;;;;;;;;5005462;28;20011;-74
2022/07/29 12:12:17;;;;;;;12.93;5.85;;;;;;;;;;4999768;28;20041;-72
2022/07/29 12:14:47;;;;;;;8.30;5.13;;;;;;;;;;5000981;28;20179;-68
2022/07/29 12:17:29;;;;;;;9.93;5.90;;;;;;;;;;5002402;28;20033;-73
2022/07/29 12:19:56;;;;;;;7.40;5.30;;;;;;;;;;5001835;28;20602;-74
2022/07/29 12:22:31;;;;;;;5.50;5.00;;;;;;;;;;5004606;28;20033;-74
2022/07/29 12:25:02;;;;;;;9.40;5.15;;;;;;;;;;4999148;28;20025;-73
2022/07/29 12:27:28;;;;;;;8.35;5.25;;;;;;;;;;5004747;28;20101;-75
2022/07/29 12:30:00;;;;;;;6.63;5.05;;;;;;;;;;4997345;28;20026;-74
2022/07/29 12:32:40;;;;;;;6.85;4.72;;;;;;;;;;5007546;28;20091;-74
2022/07/29 12:35:07;;;;;;;6.75;5.30;;;;;;;;;;4993837;28;20014;-70
2022/07/29 12:37:37;;;;;;;7.68;5.40;;;;;;;;;;4998378;28;20032;-71
2022/07/29 12:40:04;;;;;;;14.18;5.00;;;;;;;;;;4998577;28;20112;-69
2022/07/29 12:42:30;;;;;;;9.00;5.22;;;;;;;;;;4997431;28;20030;-75
2022/07/29 12:44:56;;;;;;;9.95;5.40;;;;;;;;;;5006414;28;20057;-73
2022/07/29 12:47:23;;;;;;;8.70;4.72;;;;;;;;;;5000807;28;20022;-75
2022/07/29 12:49:49;;;;;;;14.57;5.80;;;;;;;;;;4999228;28;20061;-70
2022/07/29 12:52:25;;;;;;;6.15;4.97;;;;;;;;;;5001924;28;20630;-74
2022/07/29 12:54:51;;;;;;;7.47;5.13;;;;;;;;;;4999282;28;20026;-75
2022/07/29 12:57:17;;;;;;;8.05;5.20;;;;;;;;;;5001570;28;20466;-74
2022/07/29 12:59:43;;;;;;;7.55;4.95;;;;;;;;;;4998292;28;20429;-68
2022/07/29 13:02:22;;;;;;;7.18;5.40;;;;;;;;;;4997310;28;20018;-74
2022/07/29 13:04:56;;;;;;;8.73;5.38;;;;;;;;;;4998293;28;20037;-73
2022/07/29 13:07:29;;;;;;;10.93;5.40;;;;;;;;;;5002110;28;20013;-71
2022/07/29 13:10:10;;;;;;;8.00;5.13;;;;;;;;;;4997593;28;20029;-72
2022/07/29 13:12:36;;;;;;;7.68;5.00;;;;;;;;;;4998996;28;20033;-74
2022/07/29 13:15:13;;;;;;;7.25;4.50;;;;;;;;;;5000404;28;20046;-73
2022/07/29 13:17:43;;;;;;;6.63;5.30;;;;;;;;;;5006869;28;20561;-74
2022/07/29 13:20:12;;;;;;;7.03;4.95;;;;;;;;;;5002364;28;20026;-74
2022/07/29 13:22:39;;;;;;;8.15;5.05;;;;;;;;;;4997659;28;20964;-73
2022/07/29 13:25:07;;;;;;;7.57;5.22;;;;;;;;;;4999498;28;20050;-73
2022/07/29 13:27:36;;;;;;;7.70;5.15;;;;;;;;;;5002522;28;20042;-74
2022/07/29 13:30:03;;;;;;;7.43;5.00;;;;;;;;;;4999814;28;20026;-73
2022/07/29 13:32:29;;;;;;;8.80;4.80;;;;;;;;;;5003877;28;20045;-75
2022/07/29 13:34:56;;;;;;;8.77;5.05;;;;;;;;;;4995539;28;20018;-72
2022/07/29 13:37:23;;;;;;;6.95;4.82;;;;;;;;;;5002914;28;20037;-74
2022/07/29 13:39:49;;;;;;;7.28;4.65;;;;;;;;;;5004070;28;20109;-71
2022/07/29 13:42:15;;;;;;;7.53;5.00;;;;;;;;;;5009451;28;20131;-70
2022/07/29 13:44:41;;;;;;;7.03;5.07;;;;;;;;;;4992565;28;20050;-75
2022/07/29 13:47:08;;;;;;;6.82;5.07;;;;;;;;;;5011472;28;20026;-70
2022/07/29 13:49:34;;;;;;;5.80;5.13;;;;;;;;;;5000609;28;20100;-75
2022/07/29 13:52:01;;;;;;;7.95;4.90;;;;;;;;;;5000868;28;20200;-74
2022/07/29 13:54:27;;;;;;;9.50;5.00;;;;;;;;;;4988268;28;20021;-74
2022/07/29 13:56:53;;;;;;;9.30;5.10;;;;;;;;;;4993264;28;20686;-70
2022/07/29 13:59:19;;;;;;;6.97;4.85;;;;;;;;;;4996058;28;20231;-73
2022/07/29 14:01:45;;;;;;;8.18;4.88;;;;;;;;;;4995554;28;20649;-72
2022/07/29 14:04:12;;;;;;;9.27;4.55;;;;;;;;;;4997093;28;20034;-73
2022/07/29 14:06:38;;;;;;;7.75;5.00;;;;;;;;;;4995184;28;20022;-74
2022/07/29 14:09:08;;;;;;;5.53;4.68;;;;;;;;;;4996486;28;20703;-75
2022/07/29 14:11:35;;;;;;;8.48;4.70;;;;;;;;;;4997598;28;20033;-67
2022/07/29 14:14:01;;;;;;;7.30;5.00;;;;;;;;;;5000530;28;20029;-75
2022/07/29 14:16:27;;;;;;;6.25;4.60;;;;;;;;;;5002138;28;20080;-73
2022/07/29 14:18:53;;;;;;;10.20;5.05;;;;;;;;;;5003819;28;20053;-74
2022/07/29 14:21:19;;;;;;;9.20;4.75;;;;;;;;;;5002312;28;20014;-73
2022/07/29 14:23:45;;;;;;;6.40;4.22;;;;;;;;;;5007947;28;20034;-72
2022/07/29 14:26:11;;;;;;;6.60;5.07;;;;;;;;;;5002907;28;21623;-75
2022/07/29 14:28:37;;;;;;;11.35;5.15;;;;;;;;;;5003572;28;20025;-75
2022/07/29 14:31:04;;;;;;;5.78;4.57;;;;;;;;;;5001021;28;20521;-71
2022/07/29 14:33:30;;;;;;;7.20;4.75;;;;;;;;;;5001025;28;20030;-74
2022/07/29 14:35:56;;;;;;;6.72;4.80;;;;;;;;;;5005791;28;20513;-74
2022/07/29 14:38:22;;;;;;;5.55;4.47;;;;;;;;;;5003661;28;20374;-72
2022/07/29 14:40:48;;;;;;;7.82;5.03;;;;;;;;;;5008417;28;20026;-75
2022/07/29 14:43:14;;;;;;;9.30;5.05;;;;;;;;;;5008098;28;20030;-73
2022/07/29 14:45:41;;;;;;;6.68;4.57;;;;;;;;;;5004509;28;20029;-73
2022/07/29 14:48:07;;;;;;;6.30;4.53;;;;;;;;;;5005171;28;20421;-74
2022/07/29 14:50:33;;;;;;;5.70;4.35;;;;;;;;;;4999396;28;20030;-71
2022/07/29 14:53:00;;;;;;;10.65;5.25;;;;;;;;;;5004878;28;20042;-75
2022/07/29 14:55:27;;;;;;;7.40;5.05;;;;;;;;;;5009165;28;20200;-75
2022/07/29 14:57:53;;;;;;;7.47;4.95;;;;;;;;;;5009611;28;20308;-74